Time;durP1;ratioP1;P1;durP2;ratioP2;P2;SDS_P1;SDS_P2;PMS_P1;PMS_P2;Temp;Humidity;BMP_temperature;BMP_pressure;BME280_temperature;BME280_humidity;BME280_pressure;Samples;Min_cycle;Max_cycle;Signal;HPM_P1;HPM_P2
2021/09/23 00:00:38;;;;;;;30.37;24.20;;;;;;;;;;5094093;28;20439;-76
2021/09/23 00:03:20;;;;;;;37.73;26.37;;;;;;;;;;5093699;28;20538;-75
2021/09/23 00:05:47;;;;;;;30.93;25.30;;;;;;;;;;5094503;28;20784;-77
2021/09/23 00:08:14;;;;;;;37.00;24.77;;;;;;;;;;5094700;28;20806;-76
2021/09/23 00:10:42;;;;;;;34.73;25.90;;;;;;;;;;5094244;28;20446;-76
2021/09/23 00:13:11;;;;;;;36.57;27.47;;;;;;;;;;5093515;28;20964;-76
2021/09/23 00:15:39;;;;;;;33.23;28.10;;;;;;;;;;5094290;28;20767;-76
2021/09/23 00:18:08;;;;;;;36.53;28.00;;;;;;;;;;5092539;28;20475;-76
2021/09/23 00:20:38;;;;;;;35.97;25.90;;;;;;;;;;5093156;28;20442;-77
2021/09/23 00:23:06;;;;;;;37.00;27.13;;;;;;;;;;5093545;28;20526;-76
2021/09/23 00:25:33;;;;;;;47.27;28.00;;;;;;;;;;5093398;28;20442;-75
2021/09/23 00:28:00;;;;;;;43.23;29.43;;;;;;;;;;5093220;28;20558;-76
2021/09/23 00:30:29;;;;;;;37.70;26.53;;;;;;;;;;5093126;28;20571;-76
2021/09/23 00:32:56;;;;;;;36.70;27.47;;;;;;;;;;5093640;28;20447;-76
2021/09/23 00:35:24;;;;;;;38.67;28.47;;;;;;;;;;5093400;28;20535;-76
2021/09/23 00:37:52;;;;;;;38.63;28.33;;;;;;;;;;5093420;28;20444;-76
2021/09/23 00:40:19;;;;;;;38.40;28.47;;;;;;;;;;5093573;28;20529;-76
2021/09/23 00:42:47;;;;;;;35.47;27.47;;;;;;;;;;5093369;28;20523;-76
2021/09/23 00:45:15;;;;;;;39.10;29.00;;;;;;;;;;5093004;28;20439;-76
2021/09/23 00:47:44;;;;;;;37.10;28.43;;;;;;;;;;5093961;28;20457;-76
2021/09/23 00:50:12;;;;;;;38.20;28.10;;;;;;;;;;5093018;28;20439;-76
2021/09/23 00:52:40;;;;;;;37.37;28.63;;;;;;;;;;5093336;28;20448;-77
2021/09/23 00:55:08;;;;;;;42.33;29.90;;;;;;;;;;5093261;28;20486;-76
2021/09/23 00:57:35;;;;;;;37.17;29.87;;;;;;;;;;5093680;28;20479;-76
2021/09/23 01:00:03;;;;;;;37.90;29.47;;;;;;;;;;5093707;28;20442;-76
2021/09/23 01:02:30;;;;;;;40.50;30.13;;;;;;;;;;5092961;28;20473;-77
2021/09/23 01:04:58;;;;;;;40.77;28.70;;;;;;;;;;5093122;28;20447;-78
2021/09/23 01:07:26;;;;;;;38.33;29.80;;;;;;;;;;5093127;28;20802;-76
2021/09/23 01:09:54;;;;;;;45.00;29.87;;;;;;;;;;5093121;28;20479;-76
2021/09/23 01:12:22;;;;;;;38.27;29.63;;;;;;;;;;5093104;28;20517;-76
2021/09/23 01:14:49;;;;;;;40.00;30.33;;;;;;;;;;5092937;28;20563;-76
2021/09/23 01:17:17;;;;;;;41.00;31.03;;;;;;;;;;5092708;28;20447;-75
2021/09/23 01:19:45;;;;;;;41.57;31.73;;;;;;;;;;5092862;28;20527;-76
2021/09/23 01:22:13;;;;;;;41.87;30.17;;;;;;;;;;5092947;28;20460;-75
2021/09/23 01:24:42;;;;;;;42.17;31.43;;;;;;;;;;5093476;28;20531;-76
2021/09/23 01:27:09;;;;;;;43.37;31.40;;;;;;;;;;5093075;28;20851;-76
2021/09/23 01:29:38;;;;;;;48.57;33.37;;;;;;;;;;5095315;28;20973;-76
2021/09/23 01:32:06;;;;;;;42.10;30.67;;;;;;;;;;5096832;28;20518;-76
2021/09/23 01:34:33;;;;;;;47.60;31.30;;;;;;;;;;5096287;28;20470;-76
2021/09/23 01:37:00;;;;;;;51.23;31.17;;;;;;;;;;5097029;28;20773;-74
2021/09/23 01:39:29;;;;;;;41.77;30.53;;;;;;;;;;5096220;28;20617;-78
2021/09/23 01:41:57;;;;;;;45.30;32.27;;;;;;;;;;5095991;28;20530;-76
2021/09/23 01:44:24;;;;;;;47.80;31.87;;;;;;;;;;5096206;28;20452;-77
2021/09/23 01:46:52;;;;;;;47.77;31.83;;;;;;;;;;5096444;28;20436;-77
2021/09/23 01:49:19;;;;;;;42.13;33.53;;;;;;;;;;5095804;28;20482;-77
2021/09/23 01:51:46;;;;;;;44.27;30.90;;;;;;;;;;5095790;28;20443;-76
2021/09/23 01:54:13;;;;;;;43.00;31.87;;;;;;;;;;5096019;28;20805;-77
2021/09/23 01:56:42;;;;;;;40.70;30.93;;;;;;;;;;5096007;28;20450;-77
2021/09/23 01:59:09;;;;;;;44.37;33.67;;;;;;;;;;5096244;28;20451;-77
2021/09/23 02:01:37;;;;;;;46.60;33.17;;;;;;;;;;5096501;28;20442;-77
2021/09/23 02:04:04;;;;;;;45.17;32.73;;;;;;;;;;5095566;28;20940;-77
2021/09/23 02:06:31;;;;;;;48.30;33.80;;;;;;;;;;5095800;28;20443;-78
2021/09/23 02:08:58;;;;;;;46.93;34.50;;;;;;;;;;5095770;28;20554;-78
2021/09/23 02:11:25;;;;;;;44.87;31.80;;;;;;;;;;5095384;28;20436;-78
2021/09/23 02:13:54;;;;;;;40.87;31.43;;;;;;;;;;5095316;28;20482;-78
2021/09/23 02:16:21;;;;;;;49.87;36.57;;;;;;;;;;5095368;28;20526;-77
2021/09/23 02:18:48;;;;;;;47.20;34.10;;;;;;;;;;5095584;28;20443;-79
2021/09/23 02:21:16;;;;;;;46.77;34.43;;;;;;;;;;5095898;28;20443;-78
2021/09/23 02:23:43;;;;;;;47.67;34.20;;;;;;;;;;5095561;28;20470;-78
2021/09/23 02:26:11;;;;;;;48.87;35.83;;;;;;;;;;5095900;28;20450;-78
2021/09/23 02:28:38;;;;;;;51.57;36.80;;;;;;;;;;5095478;28;20497;-78
2021/09/23 02:31:07;;;;;;;54.20;38.93;;;;;;;;;;5095456;28;20913;-77
2021/09/23 02:33:35;;;;;;;52.57;36.10;;;;;;;;;;5094947;28;20530;-78
2021/09/23 02:36:02;;;;;;;49.63;37.10;;;;;;;;;;5095041;28;20868;-78
2021/09/23 02:38:30;;;;;;;52.40;34.40;;;;;;;;;;5095999;28;20447;-78
2021/09/23 02:40:57;;;;;;;51.07;35.20;;;;;;;;;;5094622;28;20439;-79
2021/09/23 02:43:24;;;;;;;47.87;35.70;;;;;;;;;;5095309;28;20503;-79
2021/09/23 02:45:51;;;;;;;47.17;36.20;;;;;;;;;;5094738;28;20443;-77
2021/09/23 02:48:20;;;;;;;50.30;36.27;;;;;;;;;;5094930;28;20440;-79
2021/09/23 02:50:47;;;;;;;52.57;37.77;;;;;;;;;;5094840;28;20435;-79
2021/09/23 02:53:14;;;;;;;54.23;36.70;;;;;;;;;;5094550;28;20432;-76
2021/09/23 02:55:42;;;;;;;47.77;36.20;;;;;;;;;;5094725;28;20899;-77
2021/09/23 02:58:10;;;;;;;46.67;35.30;;;;;;;;;;5095046;28;20901;-77
2021/09/23 03:00:37;;;;;;;50.60;37.20;;;;;;;;;;5094936;28;20455;-77
2021/09/23 03:03:07;;;;;;;49.90;37.10;;;;;;;;;;5094384;28;20577;-77
2021/09/23 03:05:35;;;;;;;46.53;34.07;;;;;;;;;;5094546;28;20453;-76
2021/09/23 03:08:04;;;;;;;46.53;35.67;;;;;;;;;;5094335;28;20446;-75
2021/09/23 03:10:31;;;;;;;53.50;37.70;;;;;;;;;;5094922;28;20479;-76
2021/09/23 03:12:59;;;;;;;51.10;36.70;;;;;;;;;;5094191;28;20939;-76
2021/09/23 03:15:26;;;;;;;54.50;36.00;;;;;;;;;;5093993;28;20475;-76
2021/09/23 03:17:53;;;;;;;51.13;37.30;;;;;;;;;;5094438;28;20488;-76
2021/09/23 03:20:23;;;;;;;60.93;39.70;;;;;;;;;;5094437;28;20481;-76
2021/09/23 03:22:52;;;;;;;57.53;40.20;;;;;;;;;;5094261;28;20455;-76
2021/09/23 03:25:21;;;;;;;52.73;35.80;;;;;;;;;;5094976;28;20530;-77
2021/09/23 03:27:48;;;;;;;61.80;38.70;;;;;;;;;;5094081;28;20447;-77
2021/09/23 03:30:16;;;;;;;53.93;38.60;;;;;;;;;;5094398;28;20427;-77
2021/09/23 03:32:43;;;;;;;54.40;36.57;;;;;;;;;;5094319;28;20524;-77
2021/09/23 03:35:10;;;;;;;61.20;40.47;;;;;;;;;;5094183;28;20566;-76
2021/09/23 03:37:38;;;;;;;57.47;38.33;;;;;;;;;;5093733;28;20522;-77
2021/09/23 03:40:07;;;;;;;57.60;39.10;;;;;;;;;;5093959;28;20519;-77
2021/09/23 03:42:35;;;;;;;56.40;35.40;;;;;;;;;;5094935;28;20440;-77
2021/09/23 03:45:02;;;;;;;58.37;36.70;;;;;;;;;;5093912;28;20542;-77
2021/09/23 03:47:29;;;;;;;55.70;37.03;;;;;;;;;;5093563;28;20442;-77
2021/09/23 03:49:56;;;;;;;53.00;39.43;;;;;;;;;;5093962;28;20443;-77
2021/09/23 03:52:24;;;;;;;58.13;37.37;;;;;;;;;;5093176;28;20526;-76
2021/09/23 03:54:51;;;;;;;59.00;38.53;;;;;;;;;;5093651;28;20471;-77
2021/09/23 03:57:20;;;;;;;53.57;39.93;;;;;;;;;;5094202;28;20466;-77
2021/09/23 03:59:47;;;;;;;57.40;38.30;;;;;;;;;;5093355;28;20438;-77
2021/09/23 04:02:15;;;;;;;59.13;38.13;;;;;;;;;;5093308;28;20443;-76
2021/09/23 04:04:42;;;;;;;57.50;37.57;;;;;;;;;;5093665;28;20958;-76
2021/09/23 04:07:09;;;;;;;59.13;39.87;;;;;;;;;;5093270;28;20433;-76
2021/09/23 04:09:37;;;;;;;56.87;38.87;;;;;;;;;;5093983;28;20442;-76
2021/09/23 04:12:04;;;;;;;68.57;41.57;;;;;;;;;;5093414;28;20439;-76
2021/09/23 04:14:33;;;;;;;58.93;39.13;;;;;;;;;;5093018;28;20561;-75
2021/09/23 04:17:00;;;;;;;56.30;37.50;;;;;;;;;;5093458;28;20439;-76
2021/09/23 04:19:27;;;;;;;55.20;38.10;;;;;;;;;;5093639;28;20534;-77
2021/09/23 04:21:54;;;;;;;60.00;41.50;;;;;;;;;;5093035;28;20439;-77
2021/09/23 04:24:22;;;;;;;58.87;39.27;;;;;;;;;;5093449;28;20436;-77
2021/09/23 04:26:49;;;;;;;55.37;39.00;;;;;;;;;;5092436;28;20805;-76
2021/09/23 04:29:16;;;;;;;66.95;40.38;;;;;;;;;;5092320;28;20915;-76
2021/09/23 04:31:45;;;;;;;60.23;38.83;;;;;;;;;;5092545;28;20284;-76
2021/09/23 04:34:12;;;;;;;57.83;40.37;;;;;;;;;;5092691;28;20529;-76
2021/09/23 04:36:39;;;;;;;59.80;41.00;;;;;;;;;;5092273;28;20522;-77
2021/09/23 04:39:07;;;;;;;59.57;39.13;;;;;;;;;;5092778;28;20862;-77
2021/09/23 04:41:34;;;;;;;65.40;39.77;;;;;;;;;;5092828;28;20797;-78
2021/09/23 04:44:01;;;;;;;58.33;40.80;;;;;;;;;;5092640;28;20535;-75
2021/09/23 04:46:28;;;;;;;57.93;40.60;;;;;;;;;;5091269;28;20443;-76
2021/09/23 04:48:57;;;;;;;61.43;40.10;;;;;;;;;;5092502;28;20428;-77
2021/09/23 04:51:25;;;;;;;60.80;41.30;;;;;;;;;;5092410;28;20514;-77
2021/09/23 04:53:53;;;;;;;61.43;41.80;;;;;;;;;;5092931;28;20522;-76
2021/09/23 04:56:20;;;;;;;59.03;39.40;;;;;;;;;;5092725;28;20890;-76
2021/09/23 04:58:47;;;;;;;63.80;41.10;;;;;;;;;;5092193;28;20479;-78
2021/09/23 05:01:14;;;;;;;60.97;40.58;;;;;;;;;;5092802;28;20515;-79
2021/09/23 05:03:42;;;;;;;58.00;40.17;;;;;;;;;;5093742;28;20549;-77
2021/09/23 05:06:10;;;;;;;63.30;39.53;;;;;;;;;;5096840;28;20534;-77
2021/09/23 05:08:38;;;;;;;62.53;42.67;;;;;;;;;;5096167;28;20442;-77
2021/09/23 05:11:05;;;;;;;60.08;40.40;;;;;;;;;;5096485;28;20923;-76
2021/09/23 05:13:33;;;;;;;59.13;41.07;;;;;;;;;;5097116;28;20288;-77
2021/09/23 05:16:00;;;;;;;62.80;39.83;;;;;;;;;;5096590;28;20484;-77
2021/09/23 05:18:27;;;;;;;57.27;39.67;;;;;;;;;;5096803;28;20442;-77
2021/09/23 05:20:54;;;;;;;60.00;39.30;;;;;;;;;;5096693;28;20789;-77
2021/09/23 05:23:23;;;;;;;53.13;36.80;;;;;;;;;;5096757;28;20457;-76
2021/09/23 05:25:50;;;;;;;56.53;39.00;;;;;;;;;;5096621;28;20500;-75
2021/09/23 05:28:18;;;;;;;56.67;39.50;;;;;;;;;;5096519;28;20897;-71
2021/09/23 05:30:45;;;;;;;56.60;38.57;;;;;;;;;;5096810;28;20481;-70
2021/09/23 05:33:13;;;;;;;51.10;36.67;;;;;;;;;;5096506;28;20945;-71
2021/09/23 05:35:41;;;;;;;56.85;36.78;;;;;;;;;;5096057;28;20987;-71
2021/09/23 05:38:09;;;;;;;49.73;36.23;;;;;;;;;;5096406;28;20224;-70
2021/09/23 05:40:37;;;;;;;52.97;36.47;;;;;;;;;;5096498;28;20444;-71
2021/09/23 05:43:04;;;;;;;56.60;37.20;;;;;;;;;;5096016;28;20535;-71
2021/09/23 05:45:32;;;;;;;52.70;34.20;;;;;;;;;;5095965;28;20446;-71
2021/09/23 05:47:59;;;;;;;51.27;34.07;;;;;;;;;;5096851;28;20443;-71
2021/09/23 05:50:26;;;;;;;54.00;34.70;;;;;;;;;;5095941;28;20439;-70
2021/09/23 05:52:54;;;;;;;51.93;33.67;;;;;;;;;;5095884;28;20443;-70
2021/09/23 05:55:22;;;;;;;51.77;34.07;;;;;;;;;;5096056;28;20505;-71
2021/09/23 05:57:51;;;;;;;41.37;31.10;;;;;;;;;;5096123;28;20439;-70
2021/09/23 06:00:21;;;;;;;45.67;30.80;;;;;;;;;;5096081;28;20925;-71
2021/09/23 06:02:48;;;;;;;56.93;33.57;;;;;;;;;;5095608;28;20497;-70
2021/09/23 06:05:15;;;;;;;53.10;33.20;;;;;;;;;;5095973;28;20979;-70
2021/09/23 06:07:43;;;;;;;47.93;31.77;;;;;;;;;;5095926;28;20454;-72
2021/09/23 06:10:11;;;;;;;42.37;30.30;;;;;;;;;;5095931;28;20450;-72
2021/09/23 06:12:38;;;;;;;42.47;33.13;;;;;;;;;;5095920;28;20448;-70
2021/09/23 06:15:07;;;;;;;51.30;31.47;;;;;;;;;;5094257;28;20481;-71
2021/09/23 06:17:34;;;;;;;51.03;35.03;;;;;;;;;;5095945;28;20439;-70
2021/09/23 06:20:02;;;;;;;47.20;31.90;;;;;;;;;;5095762;28;20454;-70
2021/09/23 06:22:29;;;;;;;40.20;28.00;;;;;;;;;;5095300;28;20958;-70
2021/09/23 06:24:56;;;;;;;43.07;29.97;;;;;;;;;;5096033;28;20771;-70
2021/09/23 06:27:23;;;;;;;41.00;31.20;;;;;;;;;;5095401;28;20542;-70
2021/09/23 06:29:50;;;;;;;44.60;30.90;;;;;;;;;;5095626;28;20476;-71
2021/09/23 06:32:19;;;;;;;43.60;30.83;;;;;;;;;;5095256;28;20940;-70
2021/09/23 06:34:46;;;;;;;39.40;28.27;;;;;;;;;;5095312;28;20483;-71
2021/09/23 06:37:14;;;;;;;39.43;27.17;;;;;;;;;;5094909;28;20483;-70
2021/09/23 06:39:41;;;;;;;40.80;27.33;;;;;;;;;;5094933;28;20442;-70
2021/09/23 06:42:09;;;;;;;37.50;27.53;;;;;;;;;;5095217;28;20447;-70
2021/09/23 06:44:36;;;;;;;53.30;26.90;;;;;;;;;;5094859;28;21014;-71
2021/09/23 06:47:03;;;;;;;37.53;26.30;;;;;;;;;;5095235;28;20449;-71
2021/09/23 06:49:32;;;;;;;39.40;25.67;;;;;;;;;;5095085;28;20523;-71
2021/09/23 06:51:59;;;;;;;36.40;26.17;;;;;;;;;;5094736;28;20467;-71
2021/09/23 06:54:26;;;;;;;35.33;28.53;;;;;;;;;;5095006;28;20523;-71
2021/09/23 06:56:54;;;;;;;34.00;24.10;;;;;;;;;;5095211;28;20475;-70
2021/09/23 06:59:21;;;;;;;35.40;25.37;;;;;;;;;;5095140;28;20917;-70
2021/09/23 07:01:49;;;;;;;38.37;25.40;;;;;;;;;;5095128;28;20440;-70
2021/09/23 07:04:17;;;;;;;39.33;25.03;;;;;;;;;;5094782;28;20478;-70
2021/09/23 07:06:45;;;;;;;35.53;25.10;;;;;;;;;;5094736;28;20447;-70
2021/09/23 07:09:12;;;;;;;38.73;24.93;;;;;;;;;;5094385;28;20447;-71
2021/09/23 07:11:40;;;;;;;31.20;24.70;;;;;;;;;;5094375;28;20542;-71
2021/09/23 07:14:07;;;;;;;33.87;23.97;;;;;;;;;;5095226;28;20866;-70
2021/09/23 07:16:34;;;;;;;32.87;21.77;;;;;;;;;;5094107;28;20570;-71
2021/09/23 07:19:01;;;;;;;32.83;24.80;;;;;;;;;;5095077;28;20448;-70
2021/09/23 07:21:29;;;;;;;35.10;23.67;;;;;;;;;;5094481;28;20527;-71
2021/09/23 07:23:58;;;;;;;33.40;22.33;;;;;;;;;;5094881;28;20441;-70
2021/09/23 07:26:26;;;;;;;31.37;19.43;;;;;;;;;;5093841;28;20444;-71
2021/09/23 07:28:53;;;;;;;29.10;21.60;;;;;;;;;;5094378;28;20475;-71
2021/09/23 07:31:20;;;;;;;28.87;21.00;;;;;;;;;;5094055;28;20550;-71
2021/09/23 07:33:47;;;;;;;36.87;19.50;;;;;;;;;;5093946;28;20475;-70
2021/09/23 07:36:20;;;;;;;29.03;18.83;;;;;;;;;;5094179;28;20530;-70
2021/09/23 07:38:47;;;;;;;29.07;19.97;;;;;;;;;;5094087;28;20528;-71
2021/09/23 07:41:16;;;;;;;30.00;21.33;;;;;;;;;;5094429;28;20520;-71
2021/09/23 07:43:43;;;;;;;25.77;19.17;;;;;;;;;;5094111;28;21011;-71
2021/09/23 07:46:10;;;;;;;31.07;18.60;;;;;;;;;;5093879;28;20444;-71
2021/09/23 07:48:38;;;;;;;38.03;19.83;;;;;;;;;;5093825;28;20445;-71
2021/09/23 07:51:05;;;;;;;30.17;20.37;;;;;;;;;;5093825;28;20470;-71
2021/09/23 07:53:33;;;;;;;26.47;19.83;;;;;;;;;;5094396;28;20476;-71
2021/09/23 07:56:00;;;;;;;24.67;18.47;;;;;;;;;;5094092;28;20487;-70
2021/09/23 07:58:29;;;;;;;25.43;16.90;;;;;;;;;;5093854;28;20454;-71
2021/09/23 08:00:56;;;;;;;27.53;19.00;;;;;;;;;;5093603;28;20436;-70
2021/09/23 08:03:23;;;;;;;23.93;17.63;;;;;;;;;;5093622;28;20450;-71
2021/09/23 08:05:50;;;;;;;30.73;21.57;;;;;;;;;;5093542;28;20451;-71
2021/09/23 08:08:18;;;;;;;26.87;18.30;;;;;;;;;;5093462;28;20524;-71
2021/09/23 08:10:45;;;;;;;24.07;17.40;;;;;;;;;;5093419;28;20531;-70
2021/09/23 08:13:12;;;;;;;29.10;19.73;;;;;;;;;;5093244;28;20435;-70
2021/09/23 08:15:42;;;;;;;20.97;16.23;;;;;;;;;;5093220;28;20522;-70
2021/09/23 08:18:09;;;;;;;24.07;18.10;;;;;;;;;;5093688;28;20492;-72
2021/09/23 08:20:37;;;;;;;25.47;19.00;;;;;;;;;;5092709;28;20442;-71
2021/09/23 08:23:04;;;;;;;22.17;15.70;;;;;;;;;;5093005;28;20531;-71
2021/09/23 08:25:32;;;;;;;25.70;18.03;;;;;;;;;;5093215;28;20437;-71
2021/09/23 08:27:59;;;;;;;25.20;17.13;;;;;;;;;;5092970;28;20469;-71
2021/09/23 08:30:26;;;;;;;27.70;17.67;;;;;;;;;;5093319;28;20431;-71
2021/09/23 08:32:55;;;;;;;23.13;16.77;;;;;;;;;;5092977;28;20446;-71
2021/09/23 08:35:22;;;;;;;21.63;16.63;;;;;;;;;;5093250;28;20449;-71
2021/09/23 08:37:50;;;;;;;30.00;17.30;;;;;;;;;;5092919;28;20475;-70
2021/09/23 08:40:17;;;;;;;21.93;16.27;;;;;;;;;;5096862;28;20522;-71
2021/09/23 08:42:45;;;;;;;28.70;18.60;;;;;;;;;;5097446;28;20494;-71
2021/09/23 08:45:13;;;;;;;21.40;16.07;;;;;;;;;;5097326;28;20438;-71
2021/09/23 08:47:42;;;;;;;22.90;15.20;;;;;;;;;;5097366;28;20941;-71
2021/09/23 08:50:12;;;;;;;22.80;17.70;;;;;;;;;;5096926;28;20456;-71
2021/09/23 08:52:40;;;;;;;21.30;15.80;;;;;;;;;;5097116;28;20432;-71
2021/09/23 08:55:08;;;;;;;15.17;13.23;;;;;;;;;;5096990;28;20451;-71
2021/09/23 08:57:35;;;;;;;18.80;13.23;;;;;;;;;;5097485;28;20493;-71
2021/09/23 09:00:07;;;;;;;27.43;16.93;;;;;;;;;;5096703;28;20534;-71
2021/09/23 09:02:34;;;;;;;20.20;16.37;;;;;;;;;;5096543;28;20986;-71
2021/09/23 09:05:07;;;;;;;23.80;16.50;;;;;;;;;;5096861;28;20531;-72
2021/09/23 09:07:40;;;;;;;25.53;17.60;;;;;;;;;;5096995;28;20437;-71
2021/09/23 09:10:08;;;;;;;20.07;15.10;;;;;;;;;;5097477;28;20432;-71
2021/09/23 09:12:38;;;;;;;23.73;17.50;;;;;;;;;;5096285;28;20437;-71
2021/09/23 09:15:06;;;;;;;20.03;17.33;;;;;;;;;;5096967;28;20465;-70
2021/09/23 09:17:36;;;;;;;21.80;14.90;;;;;;;;;;5096151;28;20568;-70
2021/09/23 09:20:04;;;;;;;20.87;16.87;;;;;;;;;;5096210;28;20436;-71
2021/09/23 09:22:32;;;;;;;21.87;14.57;;;;;;;;;;5096486;28;20586;-71
2021/09/23 09:25:02;;;;;;;18.03;16.13;;;;;;;;;;5096956;28;20445;-70
2021/09/23 09:27:30;;;;;;;19.33;15.30;;;;;;;;;;5096359;28;20454;-71
2021/09/23 09:29:58;;;;;;;19.57;15.83;;;;;;;;;;5075892;28;21039;-70
2021/09/23 09:32:39;;;;;;;15.20;12.13;;;;;;;;;;5076466;28;20547;-73
2021/09/23 09:35:07;;;;;;;16.30;14.10;;;;;;;;;;5075846;28;20437;-71
2021/09/23 09:37:34;;;;;;;20.93;14.10;;;;;;;;;;5075777;28;20476;-71
2021/09/23 09:40:04;;;;;;;17.80;13.00;;;;;;;;;;5075956;28;20801;-71
2021/09/23 09:42:32;;;;;;;16.57;11.53;;;;;;;;;;5075861;28;20449;-71
2021/09/23 09:45:01;;;;;;;26.10;14.90;;;;;;;;;;5076072;28;20440;-71
2021/09/23 09:47:29;;;;;;;17.53;14.80;;;;;;;;;;5076055;28;20759;-71
2021/09/23 09:49:57;;;;;;;19.57;13.10;;;;;;;;;;5076312;28;20497;-71
2021/09/23 09:52:30;;;;;;;17.13;12.80;;;;;;;;;;5075660;28;20441;-71
2021/09/23 09:55:12;;;;;;;14.07;9.07;;;;;;;;;;5076304;28;20469;-71
2021/09/23 09:57:44;;;;;;;13.53;12.00;;;;;;;;;;5075863;28;20480;-70
2021/09/23 10:00:12;;;;;;;17.23;9.70;;;;;;;;;;5076372;28;20458;-71
2021/09/23 10:02:42;;;;;;;20.40;10.83;;;;;;;;;;5075399;28;20944;-72
2021/09/23 10:05:10;;;;;;;15.00;12.00;;;;;;;;;;5076414;28;20445;-71
2021/09/23 10:07:38;;;;;;;15.40;10.83;;;;;;;;;;5075400;28;20447;-72
2021/09/23 10:10:06;;;;;;;13.60;11.47;;;;;;;;;;5075637;28;20535;-71
2021/09/23 10:12:34;;;;;;;13.90;11.20;;;;;;;;;;5075469;28;20934;-72
2021/09/23 10:15:02;;;;;;;18.00;11.70;;;;;;;;;;5075607;28;20529;-72
2021/09/23 10:17:30;;;;;;;17.53;11.47;;;;;;;;;;5075699;28;20477;-72
2021/09/23 10:19:59;;;;;;;16.90;13.20;;;;;;;;;;5075130;28;20446;-71
2021/09/23 10:22:26;;;;;;;16.20;12.93;;;;;;;;;;5075494;28;20933;-71
2021/09/23 10:24:55;;;;;;;17.20;13.20;;;;;;;;;;5075603;28;20439;-71
2021/09/23 10:30:10;;;;;;;20.63;12.13;;;;;;;;;;5075124;28;20426;-71
2021/09/23 10:32:38;;;;;;;16.47;13.10;;;;;;;;;;5075208;28;20443;-71
2021/09/23 10:35:06;;;;;;;16.40;12.87;;;;;;;;;;5074535;28;20523;-71
2021/09/23 10:37:33;;;;;;;16.83;13.63;;;;;;;;;;5074823;28;20484;-71
2021/09/23 10:40:01;;;;;;;14.50;13.00;;;;;;;;;;5074501;28;20446;-70
2021/09/23 10:42:28;;;;;;;18.50;13.03;;;;;;;;;;5074666;28;20451;-71
2021/09/23 10:44:56;;;;;;;19.10;13.70;;;;;;;;;;5074718;28;20455;-73
2021/09/23 10:47:29;;;;;;;17.37;12.03;;;;;;;;;;5074306;28;21032;-71
2021/09/23 10:49:56;;;;;;;17.00;13.63;;;;;;;;;;5075052;28;20445;-71
2021/09/23 10:52:25;;;;;;;20.43;12.07;;;;;;;;;;5074977;28;20440;-71
2021/09/23 10:54:53;;;;;;;15.53;12.80;;;;;;;;;;5074499;28;20441;-71
2021/09/23 10:57:21;;;;;;;13.10;11.57;;;;;;;;;;5074590;28;20554;-70
2021/09/23 10:59:50;;;;;;;14.20;12.20;;;;;;;;;;5074524;28;20440;-70
2021/09/23 11:02:21;;;;;;;15.00;10.20;;;;;;;;;;5074097;28;20451;-71
2021/09/23 11:04:52;;;;;;;13.80;12.17;;;;;;;;;;5074533;28;20532;-70
2021/09/23 11:07:19;;;;;;;17.53;12.83;;;;;;;;;;5074616;28;20461;-71
2021/09/23 11:10:05;;;;;;;16.10;13.60;;;;;;;;;;5074437;28;20882;-70
2021/09/23 11:12:32;;;;;;;13.30;10.60;;;;;;;;;;5064635;28;21017;-71
2021/09/23 11:15:00;;;;;;;15.90;12.67;;;;;;;;;;5074129;28;20538;-70
2021/09/23 11:17:28;;;;;;;14.53;10.80;;;;;;;;;;5073882;28;20477;-70
2021/09/23 11:19:59;;;;;;;16.70;12.23;;;;;;;;;;5073982;28;20480;-71
2021/09/23 11:22:33;;;;;;;15.47;12.07;;;;;;;;;;5074490;28;20439;-70
2021/09/23 11:25:02;;;;;;;11.50;9.63;;;;;;;;;;5074196;28;20444;-71
2021/09/23 11:27:29;;;;;;;13.77;9.00;;;;;;;;;;5074173;28;20456;-71
2021/09/23 11:29:56;;;;;;;15.50;10.77;;;;;;;;;;5094141;28;20496;-71
2021/09/23 11:32:24;;;;;;;16.00;12.77;;;;;;;;;;5094847;28;20445;-71
2021/09/23 11:34:58;;;;;;;12.43;10.00;;;;;;;;;;5094038;28;20517;-70
2021/09/23 11:37:29;;;;;;;14.33;11.50;;;;;;;;;;5093825;28;20472;-70
2021/09/23 11:39:58;;;;;;;18.53;13.07;;;;;;;;;;5094140;28;20523;-70
2021/09/23 11:42:28;;;;;;;13.27;11.87;;;;;;;;;;5094276;28;20439;-70
2021/09/23 11:45:05;;;;;;;13.23;11.60;;;;;;;;;;5094415;28;20834;-70
2021/09/23 11:47:32;;;;;;;16.07;13.30;;;;;;;;;;5094308;28;20839;-71
2021/09/23 11:50:01;;;;;;;17.83;10.80;;;;;;;;;;5093875;28;20436;-70
2021/09/23 11:52:32;;;;;;;17.50;13.80;;;;;;;;;;5094312;28;20526;-70
2021/09/23 11:55:00;;;;;;;15.30;11.93;;;;;;;;;;5093832;28;20444;-71
2021/09/23 11:57:28;;;;;;;20.27;13.80;;;;;;;;;;5094315;28;20484;-71
2021/09/23 11:59:55;;;;;;;16.77;13.33;;;;;;;;;;5093899;28;20438;-71
2021/09/23 12:02:23;;;;;;;15.90;12.10;;;;;;;;;;5093483;28;20442;-70
2021/09/23 12:04:54;;;;;;;12.07;10.93;;;;;;;;;;5093596;28;20443;-71
2021/09/23 12:07:22;;;;;;;12.07;9.40;;;;;;;;;;5093720;28;20459;-71
2021/09/23 12:10:03;;;;;;;16.77;9.63;;;;;;;;;;5094072;28;20440;-71
2021/09/23 12:12:30;;;;;;;14.17;12.10;;;;;;;;;;5093332;28;20477;-71
2021/09/23 12:14:57;;;;;;;12.87;10.50;;;;;;;;;;5092856;28;20440;-70
2021/09/23 12:17:25;;;;;;;12.20;10.83;;;;;;;;;;5093496;28;20475;-71
2021/09/23 12:19:53;;;;;;;15.93;11.63;;;;;;;;;;5093887;28;20491;-70
2021/09/23 12:22:29;;;;;;;13.60;10.77;;;;;;;;;;5094078;28;20433;-70
2021/09/23 12:24:56;;;;;;;13.40;11.70;;;;;;;;;;5093417;28;20514;-72
2021/09/23 12:27:25;;;;;;;13.20;11.40;;;;;;;;;;5093021;28;20544;-72
2021/09/23 12:29:55;;;;;;;16.20;11.07;;;;;;;;;;5093261;28;20472;-71
2021/09/23 12:32:30;;;;;;;13.20;11.47;;;;;;;;;;5093241;28;20454;-71
2021/09/23 12:34:57;;;;;;;16.17;12.80;;;;;;;;;;5094241;28;20427;-70
2021/09/23 12:37:25;;;;;;;12.20;10.90;;;;;;;;;;5093029;28;20511;-71
2021/09/23 12:39:54;;;;;;;12.90;10.83;;;;;;;;;;5093299;28;20447;-71
2021/09/23 12:42:22;;;;;;;13.93;11.33;;;;;;;;;;5093387;28;20524;-70
2021/09/23 12:44:56;;;;;;;14.80;12.20;;;;;;;;;;5093181;28;21004;-71
2021/09/23 12:47:26;;;;;;;14.10;10.50;;;;;;;;;;5093287;28;20444;-72
2021/09/23 12:50:03;;;;;;;13.50;10.40;;;;;;;;;;5093607;28;20844;-74
2021/09/23 12:52:31;;;;;;;12.00;10.77;;;;;;;;;;5093677;28;20439;-72
2021/09/23 12:55:00;;;;;;;17.67;12.67;;;;;;;;;;5092905;28;20437;-72
2021/09/23 12:57:30;;;;;;;13.13;11.37;;;;;;;;;;5093041;28;20490;-73
2021/09/23 13:00:11;;;;;;;12.83;11.50;;;;;;;;;;5093277;28;20448;-73
2021/09/23 13:02:40;;;;;;;11.93;10.80;;;;;;;;;;5093424;28;20431;-76
2021/09/23 13:05:09;;;;;;;12.30;11.00;;;;;;;;;;5093144;28;20440;-76
2021/09/23 13:07:57;;;;;;;15.37;11.80;;;;;;;;;;5092043;28;20506;-77
2021/09/23 13:10:32;;;;;;;12.97;11.60;;;;;;;;;;5086816;28;20444;-77
2021/09/23 13:13:01;;;;;;;15.93;10.43;;;;;;;;;;5091998;28;20783;-75
2021/09/23 13:15:30;;;;;;;15.03;10.70;;;;;;;;;;5092516;28;20830;-75
2021/09/23 13:18:08;;;;;;;11.27;9.83;;;;;;;;;;5092332;28;20471;-75
2021/09/23 13:20:38;;;;;;;12.53;9.50;;;;;;;;;;5092466;28;20440;-76
2021/09/23 13:23:05;;;;;;;12.63;8.67;;;;;;;;;;5091732;28;20957;-75
2021/09/23 13:25:36;;;;;;;18.27;11.63;;;;;;;;;;5094281;28;20480;-74
2021/09/23 13:28:03;;;;;;;14.23;10.07;;;;;;;;;;5096227;28;20584;-75
2021/09/23 13:30:30;;;;;;;12.97;11.67;;;;;;;;;;5096098;28;21221;-75
2021/09/23 13:32:58;;;;;;;12.40;10.10;;;;;;;;;;5096301;28;20445;-77
2021/09/23 13:35:26;;;;;;;12.47;9.97;;;;;;;;;;5096209;28;20509;-77
2021/09/23 13:37:53;;;;;;;12.20;9.30;;;;;;;;;;5096289;28;20480;-75
2021/09/23 13:40:21;;;;;;;12.00;9.37;;;;;;;;;;5096489;28;20539;-77
2021/09/23 13:42:49;;;;;;;14.33;11.50;;;;;;;;;;5096086;28;20590;-75
2021/09/23 13:45:16;;;;;;;14.40;11.50;;;;;;;;;;5096786;28;20867;-75
2021/09/23 13:47:46;;;;;;;12.17;10.90;;;;;;;;;;5096045;28;20539;-75
2021/09/23 13:50:13;;;;;;;28.97;10.83;;;;;;;;;;5095764;28;20447;-74
2021/09/23 13:52:40;;;;;;;13.80;11.53;;;;;;;;;;5095914;28;20440;-72
2021/09/23 13:55:08;;;;;;;13.13;11.30;;;;;;;;;;5096247;28;20523;-75
2021/09/23 13:57:35;;;;;;;12.73;10.80;;;;;;;;;;5095794;28;20898;-77
2021/09/23 14:00:04;;;;;;;15.40;12.87;;;;;;;;;;5095846;28;20528;-77
2021/09/23 14:02:31;;;;;;;15.83;12.70;;;;;;;;;;5095994;28;20527;-75
2021/09/23 14:04:59;;;;;;;15.37;11.60;;;;;;;;;;5095571;28;20934;-75
2021/09/23 14:07:26;;;;;;;13.37;11.97;;;;;;;;;;5095018;28;20463;-76
2021/09/23 14:09:53;;;;;;;15.40;11.10;;;;;;;;;;5095461;28;20522;-75
2021/09/23 14:12:20;;;;;;;13.27;11.40;;;;;;;;;;5095312;28;20448;-74
2021/09/23 14:14:47;;;;;;;11.27;10.20;;;;;;;;;;5095231;28;20531;-75
2021/09/23 14:17:16;;;;;;;12.70;9.67;;;;;;;;;;5094893;28;20439;-74
2021/09/23 14:19:43;;;;;;;14.33;11.40;;;;;;;;;;5095305;28;21027;-75
2021/09/23 14:22:11;;;;;;;10.97;9.53;;;;;;;;;;5094666;28;20440;-75
2021/09/23 14:24:38;;;;;;;11.00;10.10;;;;;;;;;;5095885;28;20441;-76
2021/09/23 14:27:06;;;;;;;11.27;10.07;;;;;;;;;;5095178;28;20505;-75